AFR52VY LFBD-LPPR
Flight info
| Callsign | AFR52VY |
|---|---|
| Flight time | N/A |
| Altitude | 31000 |
| Route | VAVIX DCT BTZ DCT URUNA DCT SSN DCT VRA DCT NEA DCT ZMR L155 ADORO DCT INKIT |
| Aircraft | A320/M-SDE3FGHIRWY/LB1 |
Departure
| Time | 2026-05-06 20:46 |
|---|---|
| Airport | Bordeaux–Mérignac Airport (LFBD) |
Arrival
| Time | N/A |
|---|---|
| Airport | Francisco de Sá Carneiro Airport (LPPR) |
| Time | Latitude | Longitude | Altitude | Speed | Heading |
|---|---|---|---|---|---|
| 2026-05-06 20:21 | 44.82913 | -0.70207 | 167 ft | 0 kts | 58° |
| 2026-05-06 20:37 | 44.82905 | -0.70227 | 167 ft | 2 kts | 44° |
| 2026-05-06 20:37 | 44.82892 | -0.70240 | 167 ft | 2 kts | 31° |
| 2026-05-06 20:37 | 44.82878 | -0.70254 | 167 ft | 2 kts | 38° |
| 2026-05-06 20:38 | 44.82866 | -0.70271 | 167 ft | 2 kts | 83° |
| 2026-05-06 20:38 | 44.82866 | -0.70283 | 167 ft | 0 kts | 109° |
| 2026-05-06 20:41 | 44.82865 | -0.70281 | 167 ft | 1 kts | 109° |
| 2026-05-06 20:41 | 44.82861 | -0.70261 | 167 ft | 2 kts | 106° |
| 2026-05-06 20:42 | 44.82857 | -0.70241 | 167 ft | 2 kts | 106° |
| 2026-05-06 20:42 | 44.82840 | -0.70189 | 168 ft | 6 kts | 133° |
| 2026-05-06 20:42 | 44.82807 | -0.70178 | 168 ft | 4 kts | 174° |
| 2026-05-06 20:42 | 44.82776 | -0.70140 | 168 ft | 8 kts | 117° |
| 2026-05-06 20:43 | 44.82761 | -0.70076 | 168 ft | 6 kts | 105° |
| 2026-05-06 20:43 | 44.82747 | -0.70011 | 169 ft | 7 kts | 107° |
| 2026-05-06 20:43 | 44.82727 | -0.69956 | 169 ft | 5 kts | 131° |
| 2026-05-06 20:43 | 44.82696 | -0.69943 | 169 ft | 6 kts | 180° |
| 2026-05-06 20:44 | 44.82658 | -0.69954 | 169 ft | 5 kts | 195° |
| 2026-05-06 20:44 | 44.82612 | -0.69972 | 170 ft | 7 kts | 196° |
| 2026-05-06 20:44 | 44.82573 | -0.69993 | 170 ft | 5 kts | 207° |
| 2026-05-06 20:44 | 44.82552 | -0.70022 | 170 ft | 3 kts | 247° |
| 2026-05-06 20:45 | 44.82553 | -0.70047 | 170 ft | 4 kts | 282° |
| 2026-05-06 20:45 | 44.82570 | -0.70126 | 170 ft | 21 kts | 287° |
| 2026-05-06 20:45 | 44.82688 | -0.70690 | 166 ft | 95 kts | 287° |
| 2026-05-06 20:45 | 44.82931 | -0.71859 | 193 ft | 148 kts | 285° |
| 2026-05-06 20:46 | 44.83223 | -0.73244 | 815 ft | 148 kts | 285° |
| 2026-05-06 20:46 | 44.83090 | -0.74699 | 1472 ft | 158 kts | 245° |
| 2026-05-06 20:46 | 44.82256 | -0.75771 | 1980 ft | 177 kts | 204° |
| 2026-05-06 20:46 | 44.80963 | -0.75832 | 2277 ft | 201 kts | 172° |
| 2026-05-06 20:47 | 44.79482 | -0.75467 | 2453 ft | 230 kts | 171° |
| 2026-05-06 20:47 | 44.77805 | -0.75001 | 2748 ft | 258 kts | 169° |
| 2026-05-06 20:47 | 44.75991 | -0.74464 | 3356 ft | 272 kts | 169° |
| 2026-05-06 20:47 | 44.74754 | -0.74096 | 3909 ft | 275 kts | 169° |
| 2026-05-06 20:48 | 44.72866 | -0.73547 | 4827 ft | 278 kts | 169° |
| 2026-05-06 20:48 | 44.70956 | -0.73006 | 5715 ft | 282 kts | 170° |
| 2026-05-06 20:48 | 44.68371 | -0.72526 | 6882 ft | 284 kts | 178° |
| 2026-05-06 20:48 | 44.67037 | -0.72418 | 7448 ft | 286 kts | 178° |
| 2026-05-06 20:49 | 44.65038 | -0.72266 | 8287 ft | 288 kts | 178° |
| 2026-05-06 20:49 | 44.63023 | -0.72115 | 9130 ft | 291 kts | 178° |
| 2026-05-06 20:49 | 44.60988 | -0.71965 | 9958 ft | 294 kts | 179° |
| 2026-05-06 20:49 | 44.58907 | -0.71823 | 10444 ft | 309 kts | 181° |
| 2026-05-06 20:50 | 44.56755 | -0.72310 | 10649 ft | 328 kts | 204° |
| 2026-05-06 20:50 | 44.54701 | -0.73898 | 10816 ft | 348 kts | 214° |
| 2026-05-06 20:50 | 44.52613 | -0.75745 | 11287 ft | 359 kts | 214° |
| 2026-05-06 20:50 | 44.50496 | -0.77644 | 11921 ft | 364 kts | 214° |
| 2026-05-06 20:51 | 44.48355 | -0.79571 | 12590 ft | 368 kts | 214° |
| 2026-05-06 20:51 | 44.46183 | -0.81520 | 13265 ft | 372 kts | 214° |
| 2026-05-06 20:51 | 44.43983 | -0.83481 | 13915 ft | 377 kts | 214° |
| 2026-05-06 20:51 | 44.41759 | -0.85454 | 14503 ft | 380 kts | 214° |
| 2026-05-06 20:52 | 44.39515 | -0.87442 | 15121 ft | 383 kts | 214° |
| 2026-05-06 20:52 | 44.37255 | -0.89438 | 15722 ft | 386 kts | 214° |
| 2026-05-06 20:52 | 44.34968 | -0.91436 | 16310 ft | 390 kts | 213° |
| 2026-05-06 20:52 | 44.32643 | -0.93416 | 16896 ft | 393 kts | 212° |
| 2026-05-06 20:53 | 44.30288 | -0.95394 | 17476 ft | 397 kts | 212° |
| 2026-05-06 20:53 | 44.27926 | -0.97366 | 18050 ft | 401 kts | 212° |
| 2026-05-06 20:53 | 44.25522 | -0.99374 | 18584 ft | 404 kts | 212° |
| 2026-05-06 20:53 | 44.23105 | -1.01399 | 19089 ft | 407 kts | 212° |
| 2026-05-06 20:54 | 44.20669 | -1.03445 | 19593 ft | 410 kts | 212° |
| 2026-05-06 20:54 | 44.18233 | -1.05539 | 20086 ft | 412 kts | 217° |
| 2026-05-06 20:54 | 44.16139 | -1.08253 | 20554 ft | 413 kts | 233° |
| 2026-05-06 20:54 | 44.14519 | -1.11552 | 21019 ft | 414 kts | 238° |
| 2026-05-06 20:55 | 44.12943 | -1.14925 | 21480 ft | 417 kts | 238° |
| 2026-05-06 20:55 | 44.11366 | -1.18321 | 21971 ft | 419 kts | 238° |
| 2026-05-06 20:55 | 44.09783 | -1.21733 | 22423 ft | 421 kts | 238° |
| 2026-05-06 20:55 | 44.08188 | -1.25161 | 22859 ft | 423 kts | 238° |
| 2026-05-06 20:56 | 44.06579 | -1.28603 | 23282 ft | 426 kts | 238° |
| 2026-05-06 20:56 | 44.04949 | -1.32074 | 23681 ft | 428 kts | 238° |
| 2026-05-06 20:56 | 44.03318 | -1.35546 | 24027 ft | 430 kts | 238° |
| 2026-05-06 20:56 | 44.01680 | -1.39031 | 24371 ft | 431 kts | 238° |
| 2026-05-06 20:57 | 44.00037 | -1.42519 | 24754 ft | 432 kts | 238° |
| 2026-05-06 20:57 | 43.98405 | -1.45978 | 25105 ft | 433 kts | 238° |
| 2026-05-06 20:57 | 43.96754 | -1.49477 | 25442 ft | 434 kts | 238° |
| 2026-05-06 20:57 | 43.95095 | -1.52988 | 25763 ft | 436 kts | 237° |
| 2026-05-06 20:58 | 43.93427 | -1.56503 | 26116 ft | 437 kts | 237° |
| 2026-05-06 20:58 | 43.91753 | -1.60024 | 26429 ft | 438 kts | 237° |
| 2026-05-06 20:58 | 43.90075 | -1.63556 | 26726 ft | 439 kts | 237° |
| 2026-05-06 20:58 | 43.88392 | -1.67100 | 27016 ft | 441 kts | 237° |
| 2026-05-06 20:59 | 43.86697 | -1.70670 | 27312 ft | 442 kts | 238° |
| 2026-05-06 20:59 | 43.85003 | -1.74234 | 27572 ft | 443 kts | 238° |
| 2026-05-06 20:59 | 43.83303 | -1.77800 | 27832 ft | 445 kts | 237° |
| 2026-05-06 20:59 | 43.81589 | -1.81387 | 28081 ft | 446 kts | 237° |
| 2026-05-06 21:00 | 43.79871 | -1.84976 | 28338 ft | 447 kts | 237° |
| 2026-05-06 21:00 | 43.78154 | -1.88560 | 28659 ft | 446 kts | 237° |
| 2026-05-06 21:00 | 43.76434 | -1.92119 | 29015 ft | 445 kts | 237° |
| 2026-05-06 21:00 | 43.74701 | -1.95674 | 29334 ft | 444 kts | 237° |
| 2026-05-06 21:01 | 43.72968 | -1.99211 | 29664 ft | 444 kts | 237° |
| 2026-05-06 21:01 | 43.71260 | -2.02690 | 30002 ft | 443 kts | 237° |
| 2026-05-06 21:01 | 43.69533 | -2.06209 | 30308 ft | 442 kts | 237° |
| 2026-05-06 21:01 | 43.67811 | -2.09722 | 30601 ft | 441 kts | 237° |
| 2026-05-06 21:02 | 43.66100 | -2.13221 | 30897 ft | 439 kts | 237° |
| 2026-05-06 21:02 | 43.64386 | -2.16722 | 31192 ft | 438 kts | 237° |
| 2026-05-06 21:02 | 43.62678 | -2.20208 | 31486 ft | 437 kts | 237° |
| 2026-05-06 21:02 | 43.60971 | -2.23681 | 31790 ft | 436 kts | 237° |
| 2026-05-06 21:03 | 43.59267 | -2.27139 | 32076 ft | 435 kts | 237° |
| 2026-05-06 21:03 | 43.57569 | -2.30582 | 32366 ft | 434 kts | 237° |
| 2026-05-06 21:03 | 43.55867 | -2.34023 | 32634 ft | 434 kts | 237° |
| 2026-05-06 21:03 | 43.54168 | -2.37461 | 32928 ft | 433 kts | 237° |
| 2026-05-06 21:04 | 43.52474 | -2.40890 | 33213 ft | 432 kts | 237° |
| 2026-05-06 21:04 | 43.50784 | -2.44310 | 33510 ft | 431 kts | 237° |
| 2026-05-06 21:04 | 43.49095 | -2.47717 | 33815 ft | 430 kts | 237° |
| 2026-05-06 21:04 | 43.47408 | -2.51113 | 34101 ft | 429 kts | 237° |
| 2026-05-06 21:05 | 43.45727 | -2.54497 | 34341 ft | 429 kts | 237° |
| 2026-05-06 21:05 | 43.44039 | -2.57887 | 34571 ft | 428 kts | 237° |
| 2026-05-06 21:05 | 43.42355 | -2.61265 | 34794 ft | 428 kts | 237° |
| 2026-05-06 21:05 | 43.40670 | -2.64645 | 35011 ft | 428 kts | 237° |
| 2026-05-06 21:06 | 43.38984 | -2.68021 | 35218 ft | 427 kts | 237° |
| 2026-05-06 21:06 | 43.37320 | -2.71348 | 35438 ft | 427 kts | 237° |
| 2026-05-06 21:06 | 43.35635 | -2.74715 | 35642 ft | 426 kts | 237° |
| 2026-05-06 21:06 | 43.33949 | -2.78083 | 35851 ft | 426 kts | 236° |
| 2026-05-06 21:07 | 43.32263 | -2.81446 | 36026 ft | 427 kts | 236° |
| 2026-05-06 21:07 | 43.28885 | -2.88162 | 36056 ft | 431 kts | 236° |
| 2026-05-06 21:08 | 43.25476 | -2.94931 | 36057 ft | 431 kts | 236° |
| 2026-05-06 21:08 | 43.22068 | -3.01695 | 36055 ft | 431 kts | 236° |
| 2026-05-06 21:09 | 43.18647 | -3.08449 | 36038 ft | 431 kts | 236° |
| 2026-05-06 21:09 | 43.15192 | -3.15242 | 35225 ft | 436 kts | 236° |
| 2026-05-06 21:09 | 43.13452 | -3.18658 | 36051 ft | 438 kts | 236° |
| 2026-05-06 21:10 | 43.11709 | -3.22077 | 36038 ft | 437 kts | 236° |
| 2026-05-06 21:10 | 43.08252 | -3.28871 | 36035 ft | 437 kts | 236° |
| 2026-05-06 21:11 | 43.04781 | -3.35691 | 36037 ft | 437 kts | 236° |
| 2026-05-06 21:11 | 43.01297 | -3.42501 | 36035 ft | 437 kts | 236° |
| 2026-05-06 21:12 | 42.97801 | -3.49305 | 36032 ft | 438 kts | 236° |
| 2026-05-06 21:12 | 42.94290 | -3.56111 | 36034 ft | 438 kts | 235° |
| 2026-05-06 21:13 | 42.90785 | -3.62919 | 36043 ft | 438 kts | 236° |
| 2026-05-06 21:13 | 42.87306 | -3.69668 | 36047 ft | 438 kts | 235° |
| 2026-05-06 21:14 | 42.83788 | -3.76455 | 36044 ft | 438 kts | 235° |
| 2026-05-06 21:14 | 42.80272 | -3.83230 | 36055 ft | 438 kts | 235° |
| 2026-05-06 21:15 | 42.76754 | -3.90004 | 36050 ft | 438 kts | 235° |
| 2026-05-06 21:15 | 42.73226 | -3.96787 | 36051 ft | 438 kts | 235° |
| 2026-05-06 21:16 | 42.69706 | -4.03540 | 36041 ft | 438 kts | 235° |
| 2026-05-06 21:16 | 42.66169 | -4.10282 | 36040 ft | 438 kts | 235° |
| 2026-05-06 21:17 | 42.62624 | -4.17008 | 36037 ft | 438 kts | 235° |
| 2026-05-06 21:17 | 42.59085 | -4.23734 | 36032 ft | 438 kts | 235° |
| 2026-05-06 21:18 | 42.55552 | -4.30460 | 36031 ft | 438 kts | 235° |